Карточка аэропорта UWKS

Внимание!
Информация на этой странице в стадии наполнения.
Если вы не увидели какой-то информации, или заметили неточность - пожалуйста сообщите нам!
Спасибо!
Команда RU-STAFF
Название аэропортаЧебоксары
Название аэропорта (англ.)Cheboksary
Превышение561 ft. (171 m.)
Координаты56°5.4000000000002', 47°20.832'
Высота перехода4000 ft
Эшелон переходаQNH>=1013hPa:FL50; QNH<1013hPa:FL60; QNH<977hPa:FL70
Коды ответчика1000
Зона ОрВДСамара РПИ (UWWW)
Данные METARUWKS 310530Z 22007MPS 9999 -SN DRSN BKN016 M05/M07 Q1005 R24/490339 TEMPO 21008G16MPS RMK QFE740
Проноз погоды (TAF)
NOTAMshow/hide NOTAM
AWOS   TABLE

Информация о ВПП

ВПП Длина ВПП (м.) Покрытие Курс ВПП Частота ILS
062812Асфальтобетон59110.3
242812Асфальтобетон239108.3

Диспетчерские позиции




Спутниковое изображение